createdAt,value
2022-12-06T00:00:10.279Z,100338.54
2022-12-06T00:03:04.642Z,100339.48
2022-12-06T00:05:40.663Z,100339.05
2022-12-06T00:08:15.349Z,100335.98
2022-12-06T00:10:47.270Z,100330.09
2022-12-06T00:13:19.233Z,100321.83
2022-12-06T00:15:51.247Z,100322.20
2022-12-06T00:18:23.108Z,100318.16
2022-12-06T00:20:54.994Z,100316.30
2022-12-06T00:23:31.493Z,100312.00
2022-12-06T00:26:04.653Z,100313.00
2022-12-06T00:28:38.179Z,100310.91
2022-12-06T00:31:13.524Z,100308.66
2022-12-06T00:33:46.305Z,100305.74
2022-12-06T00:36:21.265Z,100302.87
2022-12-06T00:38:52.358Z,100298.23
2022-12-06T00:41:26.061Z,100294.63
2022-12-06T00:43:58.613Z,100289.21
2022-12-06T00:46:32.660Z,100289.50
2022-12-06T00:49:06.079Z,100289.25
2022-12-06T00:51:39.122Z,100287.35
2022-12-06T00:54:15.205Z,100287.83
2022-12-06T00:56:47.135Z,100289.83
2022-12-06T00:59:19.175Z,100284.75
2022-12-06T01:01:51.188Z,100283.25
2022-12-06T01:04:23.204Z,100278.81
2022-12-06T01:06:55.269Z,100271.34
2022-12-06T01:09:29.255Z,100269.80
2022-12-06T01:12:01.400Z,100273.41
2022-12-06T01:14:33.361Z,100273.74
2022-12-06T01:17:05.260Z,100269.17
2022-12-06T01:19:37.161Z,100269.30
2022-12-06T01:22:09.124Z,100265.77
2022-12-06T01:24:41.266Z,100267.31
2022-12-06T01:27:13.253Z,100266.77
2022-12-06T01:29:45.141Z,100265.64
2022-12-06T01:32:17.081Z,100259.95
2022-12-06T01:34:52.321Z,100257.71
2022-12-06T01:37:24.513Z,100256.03
2022-12-06T01:39:56.629Z,100248.57
2022-12-06T01:42:28.582Z,100245.33
2022-12-06T01:45:01.959Z,100241.50
2022-12-06T01:47:37.104Z,100242.91
2022-12-06T01:50:14.631Z,100238.77
2022-12-06T01:52:54.061Z,100238.95
2022-12-06T01:55:30.171Z,100235.75
2022-12-06T01:58:05.823Z,100238.36
2022-12-06T02:00:38.092Z,100235.11
2022-12-06T02:03:17.506Z,100232.89
2022-12-06T02:05:49.597Z,100231.27
2022-12-06T02:08:22.837Z,100232.48
2022-12-06T02:10:55.392Z,100230.42
2022-12-06T02:13:28.047Z,100236.13
2022-12-06T02:16:10.456Z,100233.84
2022-12-06T02:18:48.434Z,100231.70
2022-12-06T02:21:29.239Z,100226.09
2022-12-06T02:24:42.718Z,100224.19
2022-12-06T02:27:39.317Z,100219.94
2022-12-06T02:30:18.755Z,100217.40
2022-12-06T02:32:58.495Z,100215.94
2022-12-06T02:35:36.575Z,100213.80
2022-12-06T02:38:14.401Z,100220.08
2022-12-06T02:40:51.742Z,100216.91
2022-12-06T02:43:27.472Z,100216.13
2022-12-06T02:46:04.185Z,100211.69
2022-12-06T02:48:37.102Z,100213.61
2022-12-06T02:51:14.517Z,100213.78
2022-12-06T02:53:51.294Z,100210.11
2022-12-06T02:56:24.359Z,100209.55
2022-12-06T02:58:57.329Z,100202.63
2022-12-06T03:01:32.580Z,100202.39
2022-12-06T03:04:31.610Z,100197.39
2022-12-06T03:07:13.614Z,100193.09
2022-12-06T03:09:59.989Z,100192.04
2022-12-06T03:12:40.605Z,100184.83
2022-12-06T03:15:17.129Z,100184.90
2022-12-06T03:17:54.180Z,100185.06
2022-12-06T03:20:29.856Z,100188.95
2022-12-06T03:23:06.888Z,100184.58
2022-12-06T03:25:40.211Z,100183.13
2022-12-06T03:28:15.604Z,100179.38
2022-12-06T03:30:51.234Z,100178.35
2022-12-06T03:33:27.131Z,100178.30
2022-12-06T03:36:01.300Z,100175.23
2022-12-06T03:38:38.123Z,100179.13
2022-12-06T03:41:10.936Z,100173.75
2022-12-06T03:43:42.889Z,100171.84
2022-12-06T03:46:18.157Z,100169.89
2022-12-06T03:48:54.503Z,100165.34
2022-12-06T03:51:29.667Z,100168.46
2022-12-06T03:54:04.606Z,100170.13
2022-12-06T03:56:37.043Z,100166.91
2022-12-06T03:59:10.730Z,100163.03
2022-12-06T04:01:42.737Z,100160.84
2022-12-06T04:04:15.245Z,100160.48
2022-12-06T04:06:47.183Z,100156.83
2022-12-06T04:09:37.269Z,100158.35
2022-12-06T04:12:29.970Z,100155.33
2022-12-06T04:15:01.888Z,100148.79
2022-12-06T04:17:50.765Z,100142.94
2022-12-06T04:20:22.761Z,100141.67
2022-12-06T04:23:07.110Z,100136.05
2022-12-06T04:25:39.405Z,100125.60
2022-12-06T04:28:29.058Z,100123.64
2022-12-06T04:31:22.316Z,100115.73
2022-12-06T04:34:12.488Z,100115.70
2022-12-06T04:37:02.449Z,100110.60
2022-12-06T04:39:34.976Z,100109.89
2022-12-06T04:42:25.447Z,100110.36
2022-12-06T04:44:57.589Z,100109.75
2022-12-06T04:47:29.554Z,100111.83
2022-12-06T04:50:01.685Z,100109.88
2022-12-06T04:52:35.958Z,100102.41
2022-12-06T04:55:09.438Z,100100.25
2022-12-06T04:57:41.348Z,100097.30
2022-12-06T05:00:15.238Z,100098.89
2022-12-06T05:02:47.172Z,100095.30
2022-12-06T05:05:19.440Z,100093.09
2022-12-06T05:07:51.735Z,100089.63
2022-12-06T05:10:23.983Z,100091.73
2022-12-06T05:12:55.946Z,100090.36
2022-12-06T05:15:29.313Z,100090.27
2022-12-06T05:18:01.977Z,100087.40
2022-12-06T05:20:33.889Z,100081.02
2022-12-06T05:23:06.364Z,100081.91
2022-12-06T05:25:38.553Z,100078.70
2022-12-06T05:28:11.338Z,100081.73
2022-12-06T05:30:43.198Z,100079.24
2022-12-06T05:33:15.127Z,100075.80
2022-12-06T05:35:47.070Z,100076.52
2022-12-06T05:38:19.324Z,100075.85
2022-12-06T05:40:51.410Z,100078.02
2022-12-06T05:43:23.319Z,100073.52
2022-12-06T05:45:56.537Z,100069.64
2022-12-06T05:48:28.681Z,100072.59
2022-12-06T05:51:01.156Z,100072.10
2022-12-06T05:53:33.476Z,100073.86
2022-12-06T05:56:11.586Z,100071.89
2022-12-06T05:58:43.574Z,100073.11
2022-12-06T06:01:15.665Z,100074.20
2022-12-06T06:03:48.170Z,100072.80
2022-12-06T06:06:21.410Z,100068.58
2022-12-06T06:08:53.491Z,100065.83
2022-12-06T06:11:25.518Z,100069.25
2022-12-06T06:13:57.760Z,100068.27
2022-12-06T06:16:29.703Z,100069.41
2022-12-06T06:19:01.865Z,100069.34
2022-12-06T06:21:33.858Z,100072.98
2022-12-06T06:24:06.469Z,100072.14
2022-12-06T06:26:38.448Z,100076.86
2022-12-06T06:29:10.539Z,100076.83
2022-12-06T06:31:42.427Z,100073.44
2022-12-06T06:34:14.390Z,100072.42
2022-12-06T06:36:46.354Z,100071.77
2022-12-06T06:39:18.497Z,100073.61
2022-12-06T06:41:50.408Z,100074.20
2022-12-06T06:44:22.371Z,100072.88
2022-12-06T06:46:54.334Z,100068.20
2022-12-06T06:49:26.272Z,100065.52
2022-12-06T06:51:58.467Z,100066.50
2022-12-06T06:54:30.404Z,100066.34
2022-12-06T06:57:03.182Z,100064.88
2022-12-06T06:59:35.255Z,100065.36
2022-12-06T07:02:07.245Z,100068.41
2022-12-06T07:04:39.564Z,100067.70
2022-12-06T07:07:14.328Z,100071.59
2022-12-06T07:09:51.938Z,100075.70
2022-12-06T07:12:23.799Z,100080.08
2022-12-06T07:14:55.788Z,100082.25
2022-12-06T07:17:27.725Z,100082.98
2022-12-06T07:19:59.906Z,100076.00
2022-12-06T07:22:32.575Z,100071.57
2022-12-06T07:25:04.822Z,100068.42
2022-12-06T07:27:37.628Z,100067.20
2022-12-06T07:30:16.750Z,100067.79
2022-12-06T07:32:49.007Z,100070.02
2022-12-06T07:35:21.760Z,100069.39
2022-12-06T07:37:53.801Z,100063.25
2022-12-06T07:40:48.272Z,100062.02
2022-12-06T07:43:35.031Z,100061.32
2022-12-06T07:46:12.928Z,100063.17
2022-12-06T07:48:44.923Z,100061.14
2022-12-06T07:51:16.933Z,100056.73
2022-12-06T07:53:48.871Z,100055.00
2022-12-06T07:56:20.912Z,100046.00
2022-12-06T07:58:53.029Z,100042.80
2022-12-06T08:01:25.103Z,100040.09
2022-12-06T08:03:57.336Z,100040.20
2022-12-06T08:06:29.640Z,100034.63
2022-12-06T08:09:01.600Z,100039.17
2022-12-06T08:11:33.843Z,100036.70
2022-12-06T08:14:06.166Z,100037.85
2022-12-06T08:16:38.104Z,100037.62
2022-12-06T08:19:10.553Z,100039.55
2022-12-06T08:21:42.439Z,100036.20
2022-12-06T08:24:15.146Z,100039.03
2022-12-06T08:26:47.673Z,100043.83
2022-12-06T08:29:19.869Z,100043.83
2022-12-06T08:31:51.958Z,100042.08
2022-12-06T08:34:24.355Z,100039.05
2022-12-06T08:37:00.322Z,100035.23
2022-12-06T08:39:35.578Z,100038.70
2022-12-06T08:42:08.258Z,100038.45
2022-12-06T08:44:40.121Z,100037.10
2022-12-06T08:47:13.595Z,100036.17
2022-12-06T08:49:45.507Z,100033.52
2022-12-06T08:52:17.910Z,100034.16
2022-12-06T08:54:49.917Z,100032.20
2022-12-06T08:57:22.318Z,100034.23
2022-12-06T08:59:55.672Z,100041.20
2022-12-06T09:02:27.730Z,100037.80
2022-12-06T09:05:00.335Z,100035.62
2022-12-06T09:07:32.428Z,100036.33
2022-12-06T09:10:05.675Z,100033.83
2022-12-06T09:12:37.716Z,100027.36
2022-12-06T09:15:11.554Z,100026.45
2022-12-06T09:17:43.504Z,100026.63
2022-12-06T09:20:18.335Z,100023.63
2022-12-06T09:22:50.834Z,100026.24
2022-12-06T09:25:22.992Z,100022.45
2022-12-06T09:27:55.585Z,100025.82
2022-12-06T09:30:27.570Z,100025.45
2022-12-06T09:32:59.508Z,100022.01
2022-12-06T09:35:31.599Z,100017.48
2022-12-06T09:38:04.768Z,100011.36
2022-12-06T09:40:45.816Z,100009.30
2022-12-06T09:43:35.598Z,100008.80
2022-12-06T09:46:27.704Z,100004.63
2022-12-06T09:49:21.796Z,100002.25
2022-12-06T09:52:11.503Z,99996.70
2022-12-06T09:55:00.283Z,99986.29
2022-12-06T09:57:39.435Z,99979.84
2022-12-06T10:00:22.106Z,99986.34
2022-12-06T10:03:32.109Z,99987.07
2022-12-06T10:06:06.787Z,99986.84
2022-12-06T10:09:03.042Z,99983.00
2022-12-06T10:11:53.513Z,99979.55
2022-12-06T10:14:40.861Z,99973.96
2022-12-06T10:17:24.065Z,99971.36
2022-12-06T10:20:04.782Z,99971.78
2022-12-06T10:22:52.133Z,99967.52
2022-12-06T10:25:31.449Z,99966.19
2022-12-06T10:28:12.494Z,99967.98
2022-12-06T10:30:51.803Z,99965.39
2022-12-06T10:33:34.597Z,99962.65
2022-12-06T10:36:11.322Z,99960.05
2022-12-06T10:38:47.818Z,99959.80
2022-12-06T10:41:24.794Z,99953.68
2022-12-06T10:44:00.421Z,99949.19
2022-12-06T10:46:56.365Z,99944.72
2022-12-06T10:49:36.835Z,99939.79
2022-12-06T10:52:21.477Z,99931.79
2022-12-06T10:55:04.008Z,99935.31
2022-12-06T10:57:44.524Z,99935.36
2022-12-06T11:00:21.477Z,99928.20
2022-12-06T11:03:01.811Z,99920.45
2022-12-06T11:05:39.253Z,99917.66
2022-12-06T11:08:17.637Z,99916.38
2022-12-06T11:10:51.730Z,99919.06
2022-12-06T11:13:30.630Z,99918.77
2022-12-06T11:16:08.128Z,99908.98
2022-12-06T11:18:41.189Z,99908.08
2022-12-06T11:21:25.465Z,99906.79
2022-12-06T11:24:02.423Z,99906.77
2022-12-06T11:26:42.987Z,99900.77
2022-12-06T11:29:17.049Z,99899.86
2022-12-06T11:31:51.943Z,99897.78
2022-12-06T11:34:30.575Z,99895.84
2022-12-06T11:37:04.127Z,99894.10
2022-12-06T11:39:36.836Z,99890.41
2022-12-06T11:42:12.842Z,99891.13
2022-12-06T11:45:01.259Z,99889.42
2022-12-06T11:47:34.151Z,99885.58
2022-12-06T11:50:17.147Z,99887.27
2022-12-06T11:52:54.154Z,99883.86
2022-12-06T11:55:30.009Z,99882.61
2022-12-06T11:58:07.758Z,99879.73
2022-12-06T12:00:56.260Z,99881.32
2022-12-06T12:03:33.146Z,99878.49
2022-12-06T12:06:18.301Z,99875.71
2022-12-06T12:09:06.086Z,99871.81
2022-12-06T12:11:42.207Z,99867.88
2022-12-06T12:14:25.177Z,99866.63
2022-12-06T12:17:02.369Z,99863.23
2022-12-06T12:19:40.269Z,99859.11
2022-12-06T12:22:26.846Z,99855.41
2022-12-06T12:25:18.548Z,99845.69
2022-12-06T12:27:53.199Z,99844.50
2022-12-06T12:30:36.427Z,99839.75
2022-12-06T12:33:18.670Z,99838.96
2022-12-06T12:35:54.357Z,99836.06
2022-12-06T12:38:39.684Z,99832.21
2022-12-06T12:41:26.087Z,99828.61
2022-12-06T12:44:29.011Z,99825.71
2022-12-06T12:46:58.791Z,99825.70
2022-12-06T12:49:36.202Z,99823.42
2022-12-06T12:52:28.518Z,99818.34
2022-12-06T12:55:15.801Z,99811.14
2022-12-06T12:57:50.187Z,99812.14
2022-12-06T13:00:25.073Z,99813.39
2022-12-06T13:02:59.952Z,99810.73
2022-12-06T13:05:39.542Z,99811.40
2022-12-06T13:08:20.470Z,99808.32
2022-12-06T13:10:59.151Z,99804.86
2022-12-06T13:13:36.758Z,99804.71
2022-12-06T13:16:15.823Z,99804.22
2022-12-06T13:18:52.384Z,99805.80
2022-12-06T13:21:28.111Z,99807.36
2022-12-06T13:24:07.370Z,99806.40
2022-12-06T13:26:43.740Z,99802.67
2022-12-06T13:29:26.324Z,99803.87
2022-12-06T13:32:04.982Z,99802.38
2022-12-06T13:34:41.591Z,99805.90
2022-12-06T13:37:37.363Z,99806.49
2022-12-06T13:40:29.117Z,99808.18
2022-12-06T13:43:01.926Z,99813.55
2022-12-06T13:45:43.894Z,99810.73
2022-12-06T13:48:40.259Z,99811.38
2022-12-06T13:51:57.792Z,99809.03
2022-12-06T13:54:34.079Z,99808.52
2022-12-06T13:57:32.641Z,99804.58
2022-12-06T14:00:28.467Z,99799.88
2022-12-06T14:03:02.893Z,99799.84
2022-12-06T14:06:09.010Z,99790.98
2022-12-06T14:08:47.071Z,99792.77
2022-12-06T14:11:23.802Z,99789.34
2022-12-06T14:14:09.060Z,99783.58
2022-12-06T14:16:41.430Z,99785.11
2022-12-06T14:19:19.152Z,99781.52
2022-12-06T14:21:57.415Z,99780.71
2022-12-06T14:24:35.992Z,99778.02
2022-12-06T14:27:13.710Z,99777.88
2022-12-06T14:30:00.000Z,99779.46
2022-12-06T14:32:36.809Z,99778.79
2022-12-06T14:35:17.042Z,99778.64
2022-12-06T14:37:53.611Z,99779.83
2022-12-06T14:40:45.944Z,99781.88
2022-12-06T14:43:20.657Z,99782.61
2022-12-06T14:45:54.133Z,99778.30
2022-12-06T14:48:27.408Z,99773.45
2022-12-06T14:51:04.533Z,99777.00
2022-12-06T14:53:38.185Z,99772.81
2022-12-06T14:56:24.871Z,99773.14
2022-12-06T14:59:00.903Z,99771.64
2022-12-06T15:01:33.302Z,99771.59
2022-12-06T15:04:07.554Z,99764.00
2022-12-06T15:06:51.770Z,99765.98
2022-12-06T15:09:25.243Z,99759.64
2022-12-06T15:12:38.631Z,99758.22
2022-12-06T15:15:47.523Z,99749.73
2022-12-06T15:18:25.947Z,99745.60
2022-12-06T15:20:58.424Z,99743.60
2022-12-06T15:23:40.893Z,99739.25
2022-12-06T15:26:15.252Z,99740.40
2022-12-06T15:28:47.862Z,99737.38
2022-12-06T15:31:22.875Z,99733.61
2022-12-06T15:33:55.865Z,99729.72
2022-12-06T15:36:31.048Z,99728.86
2022-12-06T15:39:03.199Z,99727.08
2022-12-06T15:41:35.380Z,99724.30
2022-12-06T15:44:11.975Z,99724.13
2022-12-06T15:46:44.983Z,99724.23
2022-12-06T15:49:19.135Z,99724.10
2022-12-06T15:51:51.713Z,99721.26
2022-12-06T15:54:25.743Z,99717.82
2022-12-06T15:56:57.889Z,99716.59
2022-12-06T15:59:30.027Z,99718.27
2022-12-06T16:02:02.580Z,99713.63
2022-12-06T16:04:35.157Z,99715.27
2022-12-06T16:07:07.459Z,99711.49
2022-12-06T16:09:39.962Z,99713.33
2022-12-06T16:12:13.587Z,99712.89
2022-12-06T16:14:45.835Z,99714.53
2022-12-06T16:17:17.997Z,99713.43
2022-12-06T16:20:19.350Z,99711.34
2022-12-06T16:23:09.130Z,99705.68
2022-12-06T16:25:41.248Z,99703.30
2022-12-06T16:28:13.898Z,99702.34
2022-12-06T16:30:46.146Z,99700.38
2022-12-06T16:33:20.356Z,99703.33
2022-12-06T16:35:55.833Z,99700.20
2022-12-06T16:38:28.065Z,99699.98
2022-12-06T16:41:07.466Z,99698.16
2022-12-06T16:43:39.584Z,99696.03
2022-12-06T16:46:30.821Z,99690.92
2022-12-06T16:49:36.697Z,99686.98
2022-12-06T16:51:57.000Z,99687.14
2022-12-06T16:54:29.163Z,99678.67
2022-12-06T16:57:01.246Z,99676.98
2022-12-06T16:59:33.323Z,99677.62
2022-12-06T17:02:10.058Z,99675.13
2022-12-06T17:04:45.363Z,99676.97
2022-12-06T17:07:17.489Z,99675.95
2022-12-06T17:09:50.033Z,99676.30
2022-12-06T17:12:22.461Z,99679.11
2022-12-06T17:14:54.805Z,99676.91
2022-12-06T17:17:29.387Z,99677.16
2022-12-06T17:20:01.497Z,99677.06
2022-12-06T17:22:34.971Z,99679.32
2022-12-06T17:25:09.999Z,99678.80
2022-12-06T17:27:40.969Z,99678.90
2022-12-06T17:30:17.980Z,99677.99
2022-12-06T17:32:50.224Z,99672.08
2022-12-06T17:35:22.365Z,99671.44
2022-12-06T17:37:56.017Z,99668.81
2022-12-06T17:40:28.164Z,99673.19
2022-12-06T17:43:00.433Z,99673.83
2022-12-06T17:45:32.528Z,99667.73
2022-12-06T17:48:04.872Z,99669.94
2022-12-06T17:50:37.370Z,99671.83
2022-12-06T17:53:10.336Z,99670.62
2022-12-06T17:55:42.578Z,99672.14
2022-12-06T17:58:14.748Z,99670.89
2022-12-06T18:00:46.922Z,99669.92
2022-12-06T18:03:19.127Z,99669.23
2022-12-06T18:05:51.302Z,99668.05
2022-12-06T18:08:23.570Z,99660.88
2022-12-06T18:11:00.760Z,99657.39
2022-12-06T18:13:33.361Z,99653.94
2022-12-06T18:16:16.046Z,99650.16
2022-12-06T18:18:50.037Z,99648.71
2022-12-06T18:21:22.334Z,99642.27
2022-12-06T18:24:20.371Z,99641.63
2022-12-06T18:26:47.584Z,99647.70
2022-12-06T18:29:21.394Z,99647.69
2022-12-06T18:31:53.954Z,99649.96
2022-12-06T18:34:26.292Z,99650.33
2022-12-06T18:36:58.409Z,99650.92
2022-12-06T18:39:30.577Z,99649.73
2022-12-06T18:42:02.749Z,99645.44
2022-12-06T18:44:34.914Z,99646.55
2022-12-06T18:47:07.109Z,99646.10
2022-12-06T18:49:39.223Z,99643.20
2022-12-06T18:52:12.755Z,99644.09
2022-12-06T18:54:45.326Z,99644.36
2022-12-06T18:57:17.470Z,99641.94
2022-12-06T18:59:50.379Z,99633.10
2022-12-06T19:02:22.567Z,99635.35
2022-12-06T19:04:55.229Z,99632.05
2022-12-06T19:07:27.475Z,99633.66
2022-12-06T19:09:59.792Z,99632.67
2022-12-06T19:12:32.149Z,99627.16
2022-12-06T19:15:04.438Z,99626.62
2022-12-06T19:17:36.533Z,99621.85
2022-12-06T19:20:11.222Z,99623.05
2022-12-06T19:22:43.480Z,99622.70
2022-12-06T19:25:15.645Z,99619.95
2022-12-06T19:27:48.351Z,99620.72
2022-12-06T19:30:20.949Z,99620.23
2022-12-06T19:32:53.088Z,99617.21
2022-12-06T19:35:25.345Z,99611.54
2022-12-06T19:37:57.922Z,99610.02
2022-12-06T19:40:30.038Z,99608.13
2022-12-06T19:43:31.931Z,99604.14
2022-12-06T19:46:12.703Z,99600.90
2022-12-06T19:48:45.202Z,99596.23
2022-12-06T19:51:17.914Z,99595.91
2022-12-06T19:53:50.335Z,99593.85
2022-12-06T19:56:22.703Z,99590.23
2022-12-06T19:58:55.872Z,99590.85
2022-12-06T20:01:30.240Z,99587.26
2022-12-06T20:04:02.594Z,99587.79
2022-12-06T20:06:35.250Z,99586.90
2022-12-06T20:09:07.972Z,99588.50
2022-12-06T20:11:59.802Z,99587.55
2022-12-06T20:14:35.358Z,99584.80
2022-12-06T20:17:10.102Z,99576.41
2022-12-06T20:19:46.272Z,99574.45
2022-12-06T20:22:22.282Z,99575.73
2022-12-06T20:24:54.416Z,99575.55
2022-12-06T20:27:40.464Z,99571.31
2022-12-06T20:30:15.498Z,99570.32
2022-12-06T20:32:47.868Z,99565.38
2022-12-06T20:35:20.139Z,99561.89
2022-12-06T20:37:54.177Z,99562.25
2022-12-06T20:40:31.240Z,99563.13
2022-12-06T20:43:03.891Z,99561.52
2022-12-06T20:45:36.724Z,99560.10
2022-12-06T20:48:09.634Z,99556.66
2022-12-06T20:50:42.724Z,99549.57
2022-12-06T20:53:15.079Z,99552.27
2022-12-06T20:55:47.284Z,99549.06
2022-12-06T20:58:19.459Z,99544.69
2022-12-06T21:00:51.733Z,99540.66
2022-12-06T21:03:23.977Z,99539.64
2022-12-06T21:06:01.561Z,99543.18
2022-12-06T21:08:34.172Z,99541.92
2022-12-06T21:11:23.655Z,99539.85
2022-12-06T21:13:57.822Z,99540.50
2022-12-06T21:16:32.202Z,99538.16
2022-12-06T21:19:06.473Z,99536.05
2022-12-06T21:21:42.104Z,99531.73
2022-12-06T21:24:16.069Z,99528.17
2022-12-06T21:26:48.517Z,99527.83
2022-12-06T21:29:29.735Z,99528.23
2022-12-06T21:32:03.881Z,99528.77
2022-12-06T21:34:39.115Z,99526.15
2022-12-06T21:37:13.722Z,99526.07
2022-12-06T21:39:47.440Z,99524.64
2022-12-06T21:42:21.281Z,99524.11
2022-12-06T21:44:53.500Z,99525.59
2022-12-06T21:47:25.798Z,99524.27
2022-12-06T21:49:58.231Z,99528.27
2022-12-06T21:52:30.649Z,99519.38
2022-12-06T21:55:02.968Z,99520.12
2022-12-06T21:57:37.544Z,99515.91
2022-12-06T22:00:12.039Z,99516.54
2022-12-06T22:02:51.378Z,99517.31
2022-12-06T22:05:23.724Z,99512.67
2022-12-06T22:07:55.856Z,99504.59
2022-12-06T22:10:28.265Z,99501.39
2022-12-06T22:13:00.710Z,99499.23
2022-12-06T22:15:33.257Z,99494.12
2022-12-06T22:18:05.870Z,99495.83
2022-12-06T22:20:38.042Z,99496.55
2022-12-06T22:23:10.129Z,99493.73
2022-12-06T22:25:42.890Z,99492.55
2022-12-06T22:28:15.180Z,99492.66
2022-12-06T22:30:47.353Z,99487.69
2022-12-06T22:33:20.595Z,99487.30
2022-12-06T22:35:52.714Z,99482.92
2022-12-06T22:38:24.906Z,99482.59
2022-12-06T22:40:59.634Z,99478.20
2022-12-06T22:43:31.878Z,99476.56
2022-12-06T22:46:08.430Z,99470.70
2022-12-06T22:48:41.694Z,99466.04
2022-12-06T22:51:16.594Z,99463.20
2022-12-06T22:53:48.359Z,99463.21
2022-12-06T22:56:21.226Z,99462.38
2022-12-06T22:58:54.337Z,99456.52
2022-12-06T23:01:29.472Z,99452.30
2022-12-06T23:04:03.210Z,99457.17
2022-12-06T23:06:36.396Z,99460.48
2022-12-06T23:09:09.182Z,99461.16
2022-12-06T23:11:41.549Z,99457.98
2022-12-06T23:14:14.002Z,99454.36
2022-12-06T23:16:46.257Z,99452.05
2022-12-06T23:19:18.442Z,99450.19
2022-12-06T23:21:50.685Z,99450.94
2022-12-06T23:24:22.794Z,99446.16
2022-12-06T23:26:58.190Z,99447.48
2022-12-06T23:29:30.672Z,99447.79
2022-12-06T23:32:05.727Z,99448.23
2022-12-06T23:34:38.635Z,99445.42
2022-12-06T23:37:10.760Z,99448.39
2022-12-06T23:39:42.799Z,99445.11
2022-12-06T23:42:14.951Z,99440.67
2022-12-06T23:44:46.981Z,99437.80
2022-12-06T23:47:19.234Z,99432.58
2022-12-06T23:49:51.292Z,99431.45
2022-12-06T23:52:23.409Z,99430.14
2022-12-06T23:54:55.526Z,99431.82
2022-12-06T23:57:27.721Z,99434.46
